Time;durP1;ratioP1;P1;durP2;ratioP2;P2;SDS_P1;SDS_P2;PMS_P1;PMS_P2;Temp;Humidity;BMP_temperature;BMP_pressure;BME280_temperature;BME280_humidity;BME280_pressure;Samples;Min_cycle;Max_cycle;Signal;HPM_P1;HPM_P2
2023/09/04 00:00:20;;;;;;;6.47;2.35;;;;;;;21.33;100.00;100903.84;5002951;28;20046;-76
2023/09/04 00:02:48;;;;;;;3.25;2.20;;;;;;;21.34;100.00;100896.19;5020589;28;20036;-76
2023/09/04 00:05:14;;;;;;;3.60;2.25;;;;;;;21.32;100.00;100895.75;5023054;28;20096;-76
2023/09/04 00:07:39;;;;;;;3.42;2.15;;;;;;;21.32;100.00;100892.91;5003399;28;20113;-75
2023/09/04 00:10:05;;;;;;;4.82;2.30;;;;;;;21.32;100.00;100892.91;5019250;28;20034;-75
2023/09/04 00:12:31;;;;;;;4.40;2.30;;;;;;;21.30;100.00;100890.44;5035924;28;20094;-75
2023/09/04 00:14:57;;;;;;;4.20;2.13;;;;;;;21.28;100.00;100881.50;5049808;28;20443;-75
2023/09/04 00:17:23;;;;;;;6.82;2.67;;;;;;;21.30;100.00;100889.63;5035860;28;20038;-75
2023/09/04 00:19:48;;;;;;;5.20;2.42;;;;;;;21.26;100.00;100886.69;5039493;28;20040;-75
2023/09/04 00:22:14;;;;;;;4.97;2.28;;;;;;;21.26;100.00;100883.06;5022818;28;20175;-75
2023/09/04 00:24:39;;;;;;;4.97;2.55;;;;;;;21.23;100.00;100875.25;5038591;28;20030;-75
2023/09/04 00:27:05;;;;;;;3.67;2.42;;;;;;;21.24;100.00;100874.94;5040107;28;20029;-76
2023/09/04 00:29:30;;;;;;;3.97;2.67;;;;;;;21.22;100.00;100882.09;5006066;28;20029;-76
2023/09/04 00:31:56;;;;;;;4.18;2.47;;;;;;;21.20;100.00;100876.81;5005971;28;20021;-75
2023/09/04 00:34:21;;;;;;;7.05;2.65;;;;;;;21.18;100.00;100865.06;5032593;28;20026;-75
2023/09/04 00:36:47;;;;;;;3.38;1.98;;;;;;;21.14;100.00;100864.94;5012234;28;20372;-75
2023/09/04 00:39:12;;;;;;;2.78;2.20;;;;;;;21.11;100.00;100868.47;5035122;28;20034;-76
2023/09/04 00:41:38;;;;;;;4.85;2.22;;;;;;;21.12;100.00;100866.50;5031878;28;20029;-75
2023/09/04 00:44:04;;;;;;;4.13;2.30;;;;;;;21.08;100.00;100860.72;5022263;28;20371;-75
2023/09/04 00:46:29;;;;;;;2.85;1.95;;;;;;;21.07;100.00;100859.09;5038724;28;20029;-75
2023/09/04 00:48:55;;;;;;;3.97;2.38;;;;;;;21.01;100.00;100852.06;5022110;28;20040;-75
2023/09/04 00:51:20;;;;;;;4.38;2.47;;;;;;;21.02;100.00;100859.34;5018839;28;20033;-76
2023/09/04 00:53:46;;;;;;;4.50;2.55;;;;;;;21.00;100.00;100852.38;5021411;28;20021;-76
2023/09/04 00:56:12;;;;;;;4.95;2.40;;;;;;;21.00;100.00;100856.03;5005381;28;20478;-75
2023/09/04 00:58:37;;;;;;;4.38;2.35;;;;;;;20.98;100.00;100855.59;5031480;28;20082;-75
2023/09/04 01:01:03;;;;;;;4.90;2.58;;;;;;;20.92;100.00;100851.34;4989193;28;20034;-75
2023/09/04 01:03:30;;;;;;;5.93;2.40;;;;;;;20.89;100.00;100854.88;5021746;28;20029;-76
2023/09/04 01:05:55;;;;;;;4.25;2.03;;;;;;;20.89;100.00;100852.88;5038466;28;20054;-76
2023/09/04 01:08:21;;;;;;;3.35;2.40;;;;;;;20.86;100.00;100842.28;5002369;28;20060;-75
2023/09/04 01:10:58;;;;;;;3.13;1.95;;;;;;;20.81;100.00;100844.53;5005206;28;20469;-75
2023/09/04 01:14:03;;;;;;;7.65;2.42;;;;;;;20.75;100.00;100844.81;5037927;28;20040;-76
2023/09/04 01:16:28;;;;;;;3.10;2.50;;;;;;;20.75;100.00;100839.16;4997692;28;20041;-75
2023/09/04 01:18:54;;;;;;;4.80;2.53;;;;;;;20.73;100.00;100826.59;4990214;28;20039;-75
2023/09/04 01:21:19;;;;;;;6.30;2.28;;;;;;;20.72;100.00;100828.56;4984644;28;20042;-75
2023/09/04 01:23:44;;;;;;;3.63;2.28;;;;;;;20.71;100.00;100824.09;4984599;28;20029;-75
2023/09/04 01:26:24;;;;;;;5.70;2.47;;;;;;;20.66;100.00;100824.34;5016710;28;20041;-76
2023/09/04 01:29:00;;;;;;;3.80;2.30;;;;;;;20.68;100.00;100829.66;5017256;28;20109;-75
2023/09/04 01:31:40;;;;;;;4.63;2.00;;;;;;;20.68;100.00;100822.00;5033337;28;20057;-76
2023/09/04 01:34:19;;;;;;;3.65;2.10;;;;;;;20.62;100.00;100820.59;5033325;28;20045;-76
2023/09/04 01:36:44;;;;;;;3.63;2.08;;;;;;;20.60;100.00;100817.31;4985032;28;20057;-76
2023/09/04 01:39:10;;;;;;;5.30;2.63;;;;;;;20.60;100.00;100828.59;5033111;28;20048;-75
2023/09/04 01:41:39;;;;;;;5.88;2.78;;;;;;;20.60;100.00;100813.66;5033554;28;20099;-75
2023/09/04 01:44:05;;;;;;;5.63;2.83;;;;;;;20.55;100.00;100806.25;5017085;28;20046;-75
2023/09/04 01:46:31;;;;;;;6.00;2.50;;;;;;;20.55;100.00;100808.25;5017640;28;20545;-75
2023/09/04 01:48:57;;;;;;;3.88;2.25;;;;;;;20.52;100.00;100802.09;5020843;28;20033;-75
2023/09/04 01:51:22;;;;;;;3.05;2.08;;;;;;;20.51;100.00;100802.47;5038526;28;20033;-75
2023/09/04 01:53:48;;;;;;;3.58;2.30;;;;;;;20.48;100.00;100803.19;5037462;28;20107;-76
2023/09/04 01:56:13;;;;;;;3.17;2.22;;;;;;;20.49;100.00;100810.47;5020722;28;20041;-76
2023/09/04 01:58:39;;;;;;;3.17;2.10;;;;;;;20.46;100.00;100799.91;5022061;28;20532;-75
2023/09/04 02:01:04;;;;;;;3.15;2.20;;;;;;;20.43;100.00;100806.25;5038462;28;20029;-76
2023/09/04 02:03:29;;;;;;;4.38;2.20;;;;;;;20.43;100.00;100801.44;4999615;28;20033;-75
2023/09/04 02:05:55;;;;;;;8.13;2.47;;;;;;;20.44;100.00;100793.78;5017819;28;20034;-76
2023/09/04 02:08:20;;;;;;;4.57;2.50;;;;;;;20.40;100.00;100793.66;5037060;28;20036;-75
2023/09/04 02:10:49;;;;;;;3.38;2.40;;;;;;;20.40;100.00;100795.69;5020433;28;20061;-75
2023/09/04 02:13:15;;;;;;;3.00;2.08;;;;;;;20.39;100.00;100797.66;5020528;28;20100;-76
2023/09/04 02:15:40;;;;;;;3.90;2.38;;;;;;;20.40;100.00;100795.69;5017778;28;20046;-76
2023/09/04 02:18:05;;;;;;;6.75;2.30;;;;;;;20.40;100.00;100798.50;5020692;28;20386;-76
2023/09/04 02:20:31;;;;;;;2.55;1.95;;;;;;;20.37;100.00;100794.38;5020355;28;20034;-75
2023/09/04 02:22:57;;;;;;;3.33;2.35;;;;;;;20.38;100.00;100789.56;5020482;28;20096;-76
2023/09/04 02:25:23;;;;;;;4.15;2.40;;;;;;;20.38;100.00;100789.56;5019360;28;20481;-75
2023/09/04 02:27:49;;;;;;;3.53;2.45;;;;;;;20.37;100.00;100793.56;5020508;28;20033;-76
2023/09/04 02:30:14;;;;;;;4.15;2.40;;;;;;;20.36;100.00;100794.72;5036681;28;20084;-76
2023/09/04 02:32:40;;;;;;;3.40;2.28;;;;;;;20.34;100.00;100799.88;5036782;28;20077;-76
2023/09/04 02:35:06;;;;;;;4.20;2.42;;;;;;;20.34;100.00;100792.28;5037780;28;20037;-75
2023/09/04 02:37:31;;;;;;;4.82;2.42;;;;;;;20.32;100.00;100791.78;5037705;28;20055;-75
2023/09/04 02:39:57;;;;;;;5.47;2.53;;;;;;;20.31;100.00;100793.81;5036384;28;20033;-75
2023/09/04 02:42:23;;;;;;;7.55;2.42;;;;;;;20.31;100.00;100785.34;5001106;28;20414;-76
2023/09/04 02:44:48;;;;;;;3.70;2.20;;;;;;;20.29;100.00;100784.03;5029334;28;20033;-76
2023/09/04 02:47:14;;;;;;;4.13;2.45;;;;;;;20.25;100.00;100775.47;5036499;28;20042;-76
2023/09/04 02:49:39;;;;;;;4.00;2.50;;;;;;;20.24;100.00;100776.63;5003487;28;20433;-76
2023/09/04 02:52:05;;;;;;;4.10;2.22;;;;;;;20.26;100.00;100765.84;5036416;28;20040;-75
2023/09/04 02:54:30;;;;;;;2.50;2.00;;;;;;;20.24;100.00;100771.00;5019608;28;20041;-76
2023/09/04 02:56:56;;;;;;;3.60;2.30;;;;;;;20.23;100.00;100766.53;5036381;28;20496;-76
2023/09/04 02:59:21;;;;;;;2.58;1.85;;;;;;;20.22;100.00;100759.25;5036096;28;20056;-76
2023/09/04 03:01:50;;;;;;;3.53;2.08;;;;;;;20.22;100.00;100776.16;5020053;28;20080;-76
2023/09/04 03:04:16;;;;;;;3.28;2.20;;;;;;;20.19;100.00;100768.41;5016150;28;20091;-76
2023/09/04 03:06:41;;;;;;;5.60;2.38;;;;;;;20.20;100.00;100764.44;5018952;28;20025;-75
2023/09/04 03:09:07;;;;;;;3.00;2.03;;;;;;;20.16;100.00;100759.84;5035873;28;20040;-75
2023/09/04 03:11:32;;;;;;;3.15;2.13;;;;;;;20.17;100.00;100758.66;5019834;28;20034;-76
2023/09/04 03:13:58;;;;;;;4.07;2.55;;;;;;;20.18;100.00;100761.13;5036085;28;20036;-75
2023/09/04 03:16:23;;;;;;;3.20;1.90;;;;;;;20.16;100.00;100757.03;5003102;28;20041;-76
2023/09/04 03:18:49;;;;;;;3.97;2.38;;;;;;;20.11;100.00;100755.25;5003177;28;20036;-75
2023/09/04 03:21:14;;;;;;;4.45;2.30;;;;;;;20.11;100.00;100754.44;5003260;28;20113;-75
2023/09/04 03:23:40;;;;;;;2.22;1.88;;;;;;;20.07;100.00;100749.50;5035908;28;20029;-76
2023/09/04 03:26:05;;;;;;;2.90;2.20;;;;;;;20.08;100.00;100744.69;5035578;28;20037;-75
2023/09/04 03:28:30;;;;;;;3.08;2.25;;;;;;;20.10;100.00;100733.88;5036171;28;20041;-75
2023/09/04 03:30:56;;;;;;;3.90;2.42;;;;;;;20.06;100.00;100744.22;5037009;28;20358;-75
2023/09/04 03:33:21;;;;;;;3.95;2.17;;;;;;;20.07;100.00;100731.78;5003000;28;20041;-75
2023/09/04 03:35:47;;;;;;;2.92;2.28;;;;;;;20.08;100.00;100739.03;5022752;28;20034;-75
2023/09/04 03:38:13;;;;;;;3.13;2.47;;;;;;;20.05;100.00;100732.09;5038446;28;20029;-76
2023/09/04 03:40:38;;;;;;;4.25;2.45;;;;;;;20.04;100.00;100744.56;5039670;28;20052;-75
2023/09/04 03:43:04;;;;;;;2.47;2.10;;;;;;;20.01;100.00;100738.81;5023799;28;20021;-75
2023/09/04 03:45:34;;;;;;;2.53;2.00;;;;;;;20.00;100.00;100743.66;5023340;28;20036;-75
2023/09/04 03:47:59;;;;;;;4.57;2.42;;;;;;;20.00;100.00;100737.16;5023489;28;20104;-76
2023/09/04 03:50:25;;;;;;;2.58;2.05;;;;;;;20.01;100.00;100736.00;5006922;28;20063;-75
2023/09/04 03:52:50;;;;;;;3.17;2.10;;;;;;;20.00;100.00;100738.00;5023231;28;20049;-76
2023/09/04 03:55:16;;;;;;;4.05;2.20;;;;;;;19.96;100.00;100739.06;5019483;28;20029;-76
2023/09/04 03:57:43;;;;;;;3.33;2.17;;;;;;;19.93;100.00;100731.31;5039550;28;20029;-75
2023/09/04 04:00:14;;;;;;;3.67;2.00;;;;;;;19.96;100.00;100736.25;5025868;28;20029;-76
2023/09/04 04:02:41;;;;;;;3.15;2.03;;;;;;;19.95;100.00;100731.78;5034349;28;20025;-76
2023/09/04 04:05:06;;;;;;;3.58;2.20;;;;;;;19.91;100.00;100731.66;5023096;28;20033;-76
2023/09/04 04:07:32;;;;;;;3.10;2.03;;;;;;;19.92;100.00;100727.69;5020058;28;20034;-75
2023/09/04 04:09:58;;;;;;;4.05;2.42;;;;;;;19.93;100.00;100725.66;5019123;28;20026;-76
2023/09/04 04:12:24;;;;;;;2.13;1.70;;;;;;;19.93;100.00;100717.22;5039375;28;20033;-76
2023/09/04 04:14:54;;;;;;;5.00;2.13;;;;;;;19.91;100.00;100719.56;5019564;28;20179;-75
2023/09/04 04:17:19;;;;;;;4.05;2.50;;;;;;;19.91;100.00;100722.38;5019423;28;20083;-75
2023/09/04 04:19:45;;;;;;;4.32;2.17;;;;;;;19.88;100.00;100718.25;5022062;28;20041;-76
2023/09/04 04:22:10;;;;;;;2.10;1.90;;;;;;;19.87;100.00;100719.44;5022865;28;20421;-76
2023/09/04 04:24:36;;;;;;;4.90;2.00;;;;;;;19.86;100.00;100723.41;5005886;28;20029;-76
2023/09/04 04:27:01;;;;;;;3.70;2.42;;;;;;;19.84;100.00;100722.97;5003222;28;20034;-75
2023/09/04 04:29:27;;;;;;;4.38;1.95;;;;;;;19.86;100.00;100721.44;5018472;28;20057;-76
2023/09/04 04:31:53;;;;;;;6.00;2.25;;;;;;;19.83;100.00;100715.69;5017902;28;20045;-76
2023/09/04 04:34:18;;;;;;;3.00;2.20;;;;;;;19.85;100.00;100716.16;5037677;28;20076;-76
2023/09/04 04:36:44;;;;;;;3.60;2.38;;;;;;;19.85;100.00;100711.34;5001718;28;20034;-76
2023/09/04 04:39:09;;;;;;;2.40;2.00;;;;;;;19.86;100.00;100709.31;5036904;28;20112;-76
2023/09/04 04:41:35;;;;;;;2.97;2.17;;;;;;;19.81;100.00;100704.78;5001583;28;20034;-76
2023/09/04 04:44:00;;;;;;;4.22;2.13;;;;;;;19.78;100.00;100699.00;5017952;28;20041;-76
2023/09/04 04:46:26;;;;;;;4.10;2.00;;;;;;;19.80;100.00;100705.91;5017990;28;20033;-75
2023/09/04 04:48:52;;;;;;;3.22;1.92;;;;;;;19.81;100.00;100709.59;5020092;28;20033;-76
2023/09/04 04:51:17;;;;;;;3.28;2.13;;;;;;;19.77;100.00;100706.63;5004990;28;20090;-75
2023/09/04 04:53:43;;;;;;;5.00;2.42;;;;;;;19.76;100.00;100702.19;5038602;28;20026;-76
2023/09/04 04:56:08;;;;;;;3.38;2.40;;;;;;;19.80;100.00;100703.09;5021009;28;20040;-76
2023/09/04 04:58:34;;;;;;;2.53;2.00;;;;;;;19.75;100.00;100702.53;5037422;28;20029;-76
2023/09/04 05:00:59;;;;;;;5.38;2.20;;;;;;;19.76;100.00;100716.28;5007033;28;20427;-76
2023/09/04 05:03:25;;;;;;;4.05;2.22;;;;;;;19.73;100.00;100699.25;5020437;28;20033;-76
2023/09/04 05:05:50;;;;;;;9.38;2.60;;;;;;;19.73;100.00;100702.88;5004354;28;20083;-75
2023/09/04 05:08:15;;;;;;;3.75;2.40;;;;;;;19.72;100.00;100698.41;5017219;28;20037;-75
2023/09/04 05:10:41;;;;;;;3.10;2.20;;;;;;;19.69;100.00;100698.28;5028792;28;20042;-76
2023/09/04 05:13:06;;;;;;;3.05;2.38;;;;;;;19.70;100.00;100692.31;5024349;28;20375;-75
2023/09/04 05:15:32;;;;;;;3.55;2.15;;;;;;;19.70;100.00;100697.97;5024117;28;20034;-76
2023/09/04 05:17:57;;;;;;;2.60;2.33;;;;;;;19.69;100.00;100698.28;5036806;28;20390;-76
2023/09/04 05:20:23;;;;;;;5.07;2.30;;;;;;;19.69;100.00;100687.84;5036901;28;20041;-76
2023/09/04 05:22:48;;;;;;;3.38;2.20;;;;;;;19.69;100.00;100685.03;5020653;28;20029;-75
2023/09/04 05:25:13;;;;;;;3.67;2.53;;;;;;;19.70;100.00;100695.13;5016873;28;20474;-76
2023/09/04 05:27:39;;;;;;;4.35;2.20;;;;;;;19.72;100.00;100691.94;5014893;28;20045;-76
2023/09/04 05:30:05;;;;;;;3.28;2.15;;;;;;;19.70;100.00;100689.50;4973098;28;1274757;-76
2023/09/04 05:32:30;;;;;;;3.92;2.15;;;;;;;19.71;100.00;100691.13;5037766;28;20164;-75
2023/09/04 05:34:56;;;;;;;2.90;2.40;;;;;;;19.71;100.00;100688.31;5037940;28;20029;-75
2023/09/04 05:37:22;;;;;;;5.35;2.20;;;;;;;19.69;100.00;100682.19;5038887;28;20449;-76
2023/09/04 05:39:47;;;;;;;2.92;2.10;;;;;;;19.68;100.00;100686.22;5021193;28;20057;-76
2023/09/04 05:42:13;;;;;;;4.00;2.10;;;;;;;19.70;100.00;100683.88;5021331;28;20052;-76
2023/09/04 05:44:38;;;;;;;3.00;2.35;;;;;;;19.69;100.00;100687.03;5037632;28;20056;-76
2023/09/04 05:47:04;;;;;;;4.10;2.20;;;;;;;19.73;100.00;100694.44;5001344;28;20045;-76
2023/09/04 05:49:29;;;;;;;4.60;2.30;;;;;;;19.70;100.00;100683.88;5028558;28;20122;-75
2023/09/04 05:51:55;;;;;;;2.95;2.03;;;;;;;19.74;100.00;100690.44;5004522;28;20367;-75
2023/09/04 05:54:21;;;;;;;5.97;2.28;;;;;;;19.75;100.00;100692.09;5037092;28;20043;-76
2023/09/04 05:56:46;;;;;;;2.92;1.90;;;;;;;19.76;100.00;100681.63;5001598;28;20033;-76
2023/09/04 05:59:14;;;;;;;4.80;2.20;;;;;;;19.80;100.00;100689.00;5020260;28;20079;-76
2023/09/04 06:01:39;;;;;;;3.45;2.30;;;;;;;19.83;100.00;100682.66;5032440;28;20052;-76
2023/09/04 06:04:05;;;;;;;4.40;2.15;;;;;;;19.88;100.00;100689.25;5013178;28;20034;-76
2023/09/04 06:06:30;;;;;;;3.00;2.20;;;;;;;19.93;100.00;100684.22;5035114;28;20037;-75
2023/09/04 06:08:56;;;;;;;5.20;2.50;;;;;;;19.99;100.00;100691.25;5000832;28;20124;-76
2023/09/04 06:11:21;;;;;;;3.92;2.22;;;;;;;20.04;100.00;100688.19;5018198;28;20033;-78
2023/09/04 06:13:48;;;;;;;3.28;2.03;;;;;;;20.11;100.00;100683.94;5020696;28;20036;-76
2023/09/04 06:16:16;;;;;;;2.47;2.00;;;;;;;20.17;100.00;100683.38;5020807;28;20517;-76
2023/09/04 06:18:42;;;;;;;2.78;2.08;;;;;;;20.25;100.00;100676.78;5037120;28;20052;-76
2023/09/04 06:21:07;;;;;;;3.45;2.08;;;;;;;20.33;100.00;100682.63;5004253;28;20042;-76
2023/09/04 06:23:33;;;;;;;2.28;1.90;;;;;;;20.43;100.00;100690.59;5036927;28;20401;-76
2023/09/04 06:26:03;;;;;;;3.33;1.92;;;;;;;20.50;100.00;100686.00;5037765;28;20029;-76
2023/09/04 06:28:29;;;;;;;3.25;1.90;;;;;;;20.60;100.00;100687.50;5036981;28;20034;-76
2023/09/04 06:30:57;;;;;;;4.10;1.80;;;;;;;20.67;100.00;100687.72;5020113;28;20052;-76
2023/09/04 06:33:26;;;;;;;3.55;2.05;;;;;;;20.78;100.00;100692.84;5003598;28;20064;-76
2023/09/04 06:35:52;;;;;;;3.78;2.20;;;;;;;20.87;100.00;100685.06;5023018;28;20051;-76
2023/09/04 06:38:17;;;;;;;2.25;1.75;;;;;;;20.96;100.00;100683.72;5036450;28;20034;-76
2023/09/04 06:40:42;;;;;;;3.00;2.05;;;;;;;21.08;100.00;100685.66;5003539;28;20029;-76
2023/09/04 06:43:08;;;;;;;3.03;1.90;;;;;;;21.19;100.00;100692.41;5020246;28;20053;-77
2023/09/04 06:45:37;;;;;;;3.08;2.03;;;;;;;21.31;100.00;100685.88;5003979;28;20087;-76
2023/09/04 06:48:04;;;;;;;2.88;1.90;;;;;;;21.40;100.00;100683.72;5004587;28;20094;-76
2023/09/04 06:50:29;;;;;;;5.32;1.80;;;;;;;21.55;100.00;100682.09;4987653;28;20025;-77
2023/09/04 06:52:55;;;;;;;4.80;2.22;;;;;;;21.62;100.00;100679.47;5036458;28;20478;-76
2023/09/04 06:55:20;;;;;;;3.78;1.90;;;;;;;21.74;100.00;100674.88;5016641;28;20033;-76
2023/09/04 06:57:46;;;;;;;2.95;1.80;;;;;;;21.86;100.00;100669.13;5016599;28;20097;-77
2023/09/04 07:00:12;;;;;;;2.65;1.45;;;;;;;21.97;100.00;100667.38;5023182;28;20025;-77
2023/09/04 07:02:37;;;;;;;3.17;1.77;;;;;;;22.11;100.00;100674.56;5007625;28;20026;-76
2023/09/04 07:05:04;;;;;;;6.00;2.20;;;;;;;22.21;100.00;100665.53;5017731;28;20032;-77
2023/09/04 07:07:31;;;;;;;3.70;2.00;;;;;;;22.31;100.00;100673.41;5019890;28;20037;-76
2023/09/04 07:09:56;;;;;;;2.22;1.67;;;;;;;22.40;100.00;100659.91;5019677;28;20033;-77
2023/09/04 07:12:22;;;;;;;2.67;1.77;;;;;;;22.53;100.00;100669.06;5019523;28;20506;-77
2023/09/04 07:14:47;;;;;;;4.63;1.75;;;;;;;22.64;100.00;100657.97;5019598;28;20025;-77
2023/09/04 07:17:13;;;;;;;3.70;1.90;;;;;;;22.73;100.00;100667.88;5024319;28;20485;-76
2023/09/04 07:19:38;;;;;;;3.70;2.05;;;;;;;22.83;100.00;100666.44;5034517;28;20042;-76
2023/09/04 07:22:04;;;;;;;4.40;1.83;;;;;;;22.92;100.00;100669.84;5036263;28;20429;-76
2023/09/04 07:24:30;;;;;;;3.28;1.88;;;;;;;23.07;100.00;100664.53;5035490;28;20040;-76
2023/09/04 07:26:55;;;;;;;5.28;1.77;;;;;;;23.16;100.00;100670.75;5019595;28;20041;-76
2023/09/04 07:29:21;;;;;;;3.17;2.00;;;;;;;23.25;100.00;100674.16;5035999;28;20091;-77
2023/09/04 07:31:47;;;;;;;2.83;2.00;;;;;;;23.31;100.00;100669.81;5019299;28;20049;-77
2023/09/04 07:34:12;;;;;;;3.25;2.00;;;;;;;23.46;100.00;100668.06;5008584;28;20076;-77
2023/09/04 07:36:38;;;;;;;3.08;1.85;;;;;;;23.58;100.00;100664.22;5009108;28;20500;-77
2023/09/04 07:39:03;;;;;;;1.98;1.70;;;;;;;23.68;100.00;100665.56;4999076;28;20065;-77
2023/09/04 07:41:30;;;;;;;3.10;1.75;;;;;;;23.77;100.00;100664.16;5032560;28;20120;-76
2023/09/04 07:43:55;;;;;;;3.65;1.70;;;;;;;23.85;100.00;100668.75;5031181;28;20025;-76
2023/09/04 07:46:21;;;;;;;2.97;2.10;;;;;;;23.93;100.00;100666.00;5027668;28;20077;-76
2023/09/04 07:48:47;;;;;;;3.25;1.70;;;;;;;24.02;100.00;100667.41;4999935;28;20045;-77
2023/09/04 07:51:12;;;;;;;5.85;1.90;;;;;;;24.12;100.00;100657.38;5024062;28;20482;-76
2023/09/04 07:53:38;;;;;;;3.50;1.77;;;;;;;24.19;100.00;100668.84;5018968;28;20490;-76
2023/09/04 07:56:03;;;;;;;5.85;2.13;;;;;;;24.29;100.00;100665.38;5019179;28;20029;-76
2023/09/04 07:58:29;;;;;;;2.10;1.60;;;;;;;24.38;100.00;100670.75;5019346;28;20044;-76
2023/09/04 08:00:54;;;;;;;4.88;2.35;;;;;;;24.52;100.00;100664.47;5005381;28;20026;-76
2023/09/04 08:03:21;;;;;;;3.25;1.73;;;;;;;24.62;100.00;100663.78;5037242;28;20021;-76
2023/09/04 08:05:46;;;;;;;2.83;1.90;;;;;;;24.76;100.00;100668.81;5019455;28;20034;-76
2023/09/04 08:08:12;;;;;;;4.75;2.10;;;;;;;24.87;100.00;100660.44;4999520;28;20036;-77
2023/09/04 08:10:45;;;;;;;4.32;2.00;;;;;;;24.98;100.00;100664.22;5010745;28;20560;-76
2023/09/04 08:13:15;;;;;;;5.10;2.20;;;;;;;25.09;100.00;100667.97;5003110;28;20068;-76
2023/09/04 08:15:40;;;;;;;6.63;2.60;;;;;;;25.22;100.00;100662.88;5036749;28;20037;-76
2023/09/04 08:18:06;;;;;;;3.13;1.77;;;;;;;25.30;100.00;100661.75;5035667;28;20063;-76
2023/09/04 08:20:32;;;;;;;3.50;1.85;;;;;;;25.41;100.00;100659.81;5019110;28;20094;-76
2023/09/04 08:22:57;;;;;;;3.63;1.98;;;;;;;25.50;100.00;100656.66;5000062;28;20029;-76
2023/09/04 08:25:23;;;;;;;3.45;1.83;;;;;;;25.64;100.00;100651.06;5015874;28;20040;-76
2023/09/04 08:27:48;;;;;;;3.13;1.70;;;;;;;25.77;100.00;100660.13;5033464;28;20026;-76
2023/09/04 08:30:14;;;;;;;3.75;1.77;;;;;;;25.93;100.00;100653.34;5052323;28;20556;-77
2023/09/04 08:32:39;;;;;;;3.38;1.67;;;;;;;25.99;100.00;100661.13;5003080;28;20029;-76
2023/09/04 08:35:05;;;;;;;2.38;1.67;;;;;;;26.11;100.00;100662.84;5035384;28;20092;-77
2023/09/04 08:37:30;;;;;;;3.85;1.60;;;;;;;26.17;100.00;100654.75;5018315;28;20394;-76
2023/09/04 08:39:56;;;;;;;4.78;1.65;;;;;;;26.29;100.00;100649.50;5018723;28;20057;-76
2023/09/04 08:42:22;;;;;;;2.72;1.80;;;;;;;26.38;100.00;100652.00;5000078;28;20029;-76
2023/09/04 08:44:47;;;;;;;1.90;1.58;;;;;;;26.49;100.00;100650.03;5022417;28;20470;-77
2023/09/04 08:47:14;;;;;;;3.95;1.88;;;;;;;26.51;100.00;100655.34;5005984;28;20033;-76
2023/09/04 08:49:39;;;;;;;1.88;1.35;;;;;;;26.61;100.00;100648.91;4989525;28;20021;-76
2023/09/04 08:52:05;;;;;;;4.63;1.70;;;;;;;26.70;100.00;100648.53;5038565;28;20033;-76
2023/09/04 08:54:32;;;;;;;4.07;2.10;;;;;;;26.80;100.00;100647.75;5022041;28;20081;-76
2023/09/04 08:57:01;;;;;;;4.65;1.80;;;;;;;26.91;100.00;100637.19;5022252;28;20034;-77
2023/09/04 08:59:27;;;;;;;2.47;1.77;;;;;;;26.99;100.00;100634.34;5038556;28;20033;-76
2023/09/04 09:01:53;;;;;;;2.17;1.70;;;;;;;27.01;100.00;100646.16;5019475;28;20466;-76
2023/09/04 09:04:20;;;;;;;3.70;1.73;;;;;;;27.08;100.00;100640.47;5002306;28;20033;-76
2023/09/04 09:06:47;;;;;;;2.75;1.80;;;;;;;27.15;100.00;100638.47;5001670;28;20057;-76
2023/09/04 09:09:12;;;;;;;7.00;1.80;;;;;;;27.24;100.00;100649.50;5014721;28;20041;-76
2023/09/04 09:11:39;;;;;;;3.63;1.50;;;;;;;27.36;100.00;100642.59;5001187;28;20037;-76
2023/09/04 09:14:04;;;;;;;5.00;1.63;;;;;;;27.45;100.00;100643.00;5011869;28;20052;-76
2023/09/04 09:16:29;;;;;;;4.35;1.75;;;;;;;27.52;100.00;100636.47;5018356;28;20022;-76
2023/09/04 09:18:56;;;;;;;4.93;1.52;;;;;;;27.63;100.00;100645.84;5047804;28;20075;-77
2023/09/04 09:21:29;;;;;;;3.58;1.50;;;;;;;27.70;100.00;100637.31;5002083;28;20052;-77
2023/09/04 09:24:08;;;;;;;;;;;;;;;27.80;100.00;100633.66;5006336;28;20037;-77
2023/09/04 09:26:33;;;;;;;5.50;1.70;;;;;;;27.92;100.00;100623.88;5038334;28;20388;-77
2023/09/04 09:29:02;;;;;;;2.72;1.80;;;;;;;27.94;100.00;100623.44;5021359;28;20033;-76
2023/09/04 09:31:28;;;;;;;2.90;1.80;;;;;;;27.95;100.00;100619.38;5005771;28;20045;-76
2023/09/04 09:33:53;;;;;;;4.15;2.00;;;;;;;28.05;100.00;100612.81;5018557;28;20105;-76
2023/09/04 09:36:19;;;;;;;5.22;2.00;;;;;;;28.16;100.00;100612.78;5013468;28;20048;-76
2023/09/04 09:38:45;;;;;;;1.98;1.50;;;;;;;28.16;100.00;100607.88;5003911;28;20034;-76
2023/09/04 09:41:12;;;;;;;3.05;1.80;;;;;;;28.28;100.00;100604.59;5037801;28;20025;-76
2023/09/04 09:43:38;;;;;;;2.17;1.63;;;;;;;28.39;100.00;100603.72;5020715;28;20022;-76
2023/09/04 09:46:06;;;;;;;3.88;1.90;;;;;;;28.40;100.00;100599.66;5021381;28;20030;-76
2023/09/04 09:48:32;;;;;;;3.90;1.90;;;;;;;28.47;100.00;100603.34;5021518;28;20045;-76
2023/09/04 09:50:57;;;;;;;4.95;1.80;;;;;;;28.53;100.00;100592.28;5037633;28;20033;-76
2023/09/04 09:53:23;;;;;;;3.95;1.80;;;;;;;28.60;100.00;100583.66;5018605;28;20030;-76
2023/09/04 09:55:48;;;;;;;4.80;1.98;;;;;;;28.70;100.00;100579.94;5020678;28;20040;-76
2023/09/04 09:58:14;;;;;;;2.60;1.77;;;;;;;28.79;100.00;100578.69;5004689;28;20552;-76
2023/09/04 10:00:39;;;;;;;4.28;2.00;;;;;;;28.87;100.00;100586.78;5004990;28;20031;-76
2023/09/04 10:03:05;;;;;;;3.60;1.92;;;;;;;28.94;100.00;100583.06;5019854;28;20033;-76
2023/09/04 10:05:30;;;;;;;2.67;1.65;;;;;;;29.04;99.64;100575.69;5016226;28;20036;-76
2023/09/04 10:07:59;;;;;;;2.72;1.63;;;;;;;29.14;100.00;100587.03;5037347;28;20025;-76
2023/09/04 10:10:25;;;;;;;2.53;1.50;;;;;;;29.24;93.75;100568.16;5000946;28;20080;-76
2023/09/04 10:13:15;;;;;;;5.75;1.98;;;;;;;29.25;94.58;100574.69;5015440;28;20037;-76
2023/09/04 10:15:42;;;;;;;4.80;1.48;;;;;;;29.35;91.63;100573.81;5037126;28;20040;-77
2023/09/04 10:18:11;;;;;;;4.18;1.80;;;;;;;29.43;92.22;100566.78;5001053;28;20146;-76
2023/09/04 10:20:36;;;;;;;2.72;1.58;;;;;;;29.49;96.04;100567.94;5010430;28;20033;-76
2023/09/04 10:23:11;;;;;;;6.28;1.80;;;;;;;29.59;90.54;100549.06;5036610;28;20029;-77
2023/09/04 10:25:58;;;;;;;4.75;1.63;;;;;;;29.69;89.05;100544.50;5020216;28;20385;-76
2023/09/04 10:28:27;;;;;;;5.32;1.85;;;;;;;29.77;84.42;100540.31;5038125;28;20085;-76
2023/09/04 10:30:53;;;;;;;3.00;1.80;;;;;;;29.80;85.30;100539.47;5020583;28;20077;-76
2023/09/04 10:33:21;;;;;;;5.07;1.88;;;;;;;29.91;84.48;100525.84;5004074;28;20057;-76
2023/09/04 10:35:47;;;;;;;7.43;1.65;;;;;;;30.04;80.47;100524.06;5022242;28;20029;-76
2023/09/04 10:38:13;;;;;;;4.25;1.73;;;;;;;30.10;79.34;100524.41;5019701;28;20034;-76
2023/09/04 10:40:39;;;;;;;5.30;1.95;;;;;;;30.12;77.91;100523.97;5027300;28;20080;-76
2023/09/04 10:43:05;;;;;;;2.13;1.58;;;;;;;30.17;77.47;100520.63;5044733;28;20026;-76
2023/09/04 10:45:31;;;;;;;6.05;1.85;;;;;;;30.25;73.56;100522.19;4998795;28;20060;-76
2023/09/04 10:47:57;;;;;;;4.68;1.88;;;;;;;30.26;72.11;100512.38;5015824;28;20029;-76
2023/09/04 10:50:29;;;;;;;2.70;1.70;;;;;;;30.35;72.71;100512.66;5036314;28;20037;-76
2023/09/04 10:52:55;;;;;;;;;;;;;;;30.39;73.56;100512.59;5000750;28;20034;-76
2023/09/04 10:55:20;;;;;;;2.35;1.85;;;;;;;30.45;70.61;100508.81;5048259;28;19917;-76
2023/09/04 10:58:02;;;;;;;6.47;1.80;;;;;;;30.48;69.33;100495.69;5020042;28;20029;-77
2023/09/04 11:00:29;;;;;;;4.43;1.50;;;;;;;30.57;68.99;100495.16;5016173;28;20029;-76
2023/09/04 11:02:55;;;;;;;4.05;1.60;;;;;;;30.61;67.77;100488.09;4999556;28;20427;-76
2023/09/04 11:05:21;;;;;;;3.63;1.30;;;;;;;30.67;67.96;100489.28;5035244;28;20032;-76
2023/09/04 11:07:46;;;;;;;4.25;1.70;;;;;;;30.73;64.69;100486.72;5036192;28;20056;-76
2023/09/04 11:10:16;;;;;;;3.53;1.58;;;;;;;30.81;62.21;100485.38;5009011;28;20072;-77
2023/09/04 11:12:45;;;;;;;4.13;1.50;;;;;;;30.83;61.86;100484.94;5033828;28;20034;-77
2023/09/04 11:15:16;;;;;;;2.13;1.63;;;;;;;30.88;62.34;100479.53;5019782;28;20436;-77